createdAt,value
2023-11-26T00:01:48.275Z,15.18
2023-11-26T00:04:50.167Z,12.07
2023-11-26T00:07:52.726Z,16.58
2023-11-26T00:10:55.880Z,16.65
2023-11-26T00:13:58.418Z,19.70
2023-11-26T00:17:00.734Z,14.52
2023-11-26T00:20:02.650Z,16.13
2023-11-26T00:23:04.621Z,11.98
2023-11-26T00:26:07.192Z,8.55
2023-11-26T00:29:09.105Z,14.40
2023-11-26T00:32:11.257Z,14.18
2023-11-26T00:35:13.752Z,11.18
2023-11-26T00:38:15.692Z,17.38
2023-11-26T00:41:17.658Z,21.25
2023-11-26T00:44:19.493Z,18.40
2023-11-26T00:47:22.088Z,17.52
2023-11-26T00:50:24.281Z,12.82
2023-11-26T00:53:26.209Z,15.15
2023-11-26T00:56:28.048Z,15.95
2023-11-26T00:59:29.852Z,17.25
2023-11-26T01:02:34.416Z,15.85
2023-11-26T01:05:36.477Z,14.52
2023-11-26T01:08:38.326Z,17.08
2023-11-26T01:11:40.134Z,15.02
2023-11-26T01:14:41.902Z,17.63
2023-11-26T01:17:44.105Z,13.60
2023-11-26T01:20:46.288Z,18.30
2023-11-26T01:23:48.524Z,13.63
2023-11-26T01:26:50.750Z,16.45
2023-11-26T01:29:52.521Z,13.15
2023-11-26T01:32:54.467Z,18.45
2023-11-26T01:35:56.355Z,13.50
2023-11-26T01:38:58.221Z,13.98
2023-11-26T01:42:00.240Z,15.90
2023-11-26T01:45:01.971Z,16.88
2023-11-26T01:48:04.591Z,14.00
2023-11-26T01:51:10.433Z,12.98
2023-11-26T01:54:12.343Z,11.45
2023-11-26T01:57:16.422Z,12.77
2023-11-26T02:00:21.068Z,17.08
2023-11-26T02:03:23.527Z,14.50
2023-11-26T02:06:26.194Z,16.77
2023-11-26T02:09:29.206Z,13.43
2023-11-26T02:12:30.980Z,8.35
2023-11-26T02:15:36.208Z,13.45
2023-11-26T02:18:38.109Z,14.35
2023-11-26T02:21:39.908Z,15.57
2023-11-26T02:24:45.094Z,16.65
2023-11-26T02:27:47.579Z,13.43
2023-11-26T02:30:49.646Z,14.63
2023-11-26T02:33:55.137Z,18.50
2023-11-26T02:36:58.002Z,12.65
2023-11-26T02:39:59.802Z,13.48
2023-11-26T02:43:02.362Z,12.38
2023-11-26T02:46:04.223Z,11.38
2023-11-26T02:49:06.088Z,14.10
2023-11-26T02:52:07.825Z,13.07
2023-11-26T02:55:09.999Z,16.10
2023-11-26T02:58:14.255Z,17.65
2023-11-26T03:01:29.547Z,13.05
2023-11-26T03:04:31.506Z,15.35
2023-11-26T03:07:35.714Z,16.15
2023-11-26T03:10:57.663Z,15.38
2023-11-26T03:13:59.727Z,17.17
2023-11-26T03:17:01.720Z,16.67
2023-11-26T03:20:04.240Z,16.75
2023-11-26T03:23:06.107Z,18.75
2023-11-26T03:26:08.223Z,20.58
2023-11-26T03:29:10.872Z,22.13
2023-11-26T03:32:12.958Z,25.50
2023-11-26T03:35:14.841Z,24.08
2023-11-26T03:38:17.558Z,25.08
2023-11-26T03:41:20.043Z,21.33
2023-11-26T03:44:21.993Z,25.43
2023-11-26T03:47:24.697Z,24.30
2023-11-26T03:50:27.344Z,23.50
2023-11-26T03:53:29.788Z,25.97
2023-11-26T03:56:31.674Z,26.90
2023-11-26T03:59:33.558Z,23.17
2023-11-26T04:02:36.583Z,26.13
2023-11-26T04:05:38.426Z,23.05
2023-11-26T04:08:40.290Z,28.02
2023-11-26T04:11:45.556Z,31.92
2023-11-26T04:14:58.096Z,24.33
2023-11-26T04:18:00.268Z,28.13
2023-11-26T04:21:02.676Z,27.65
2023-11-26T04:24:04.758Z,27.00
2023-11-26T04:27:06.762Z,24.95
2023-11-26T04:30:09.474Z,27.80
2023-11-26T04:33:11.660Z,32.85
2023-11-26T04:36:14.149Z,28.98
2023-11-26T04:39:15.928Z,22.77
2023-11-26T04:42:18.716Z,24.13
2023-11-26T04:45:20.886Z,24.80
2023-11-26T04:48:22.712Z,26.38
2023-11-26T04:51:24.663Z,24.95
2023-11-26T04:54:28.062Z,25.10
2023-11-26T04:57:31.244Z,27.50
2023-11-26T05:00:33.182Z,28.73
2023-11-26T05:03:35.096Z,27.70
2023-11-26T05:06:36.874Z,27.90
2023-11-26T05:09:38.696Z,25.40
2023-11-26T05:12:40.504Z,27.52
2023-11-26T05:15:42.460Z,26.83
2023-11-26T05:18:44.926Z,24.88
2023-11-26T05:21:47.940Z,33.97
2023-11-26T05:24:50.102Z,27.92
2023-11-26T05:27:52.220Z,24.17
2023-11-26T05:30:55.038Z,25.73
2023-11-26T05:33:57.692Z,25.95
2023-11-26T05:37:01.719Z,24.13
2023-11-26T05:40:03.663Z,26.60
2023-11-26T05:43:05.654Z,26.05
2023-11-26T05:46:08.393Z,24.73
2023-11-26T05:49:10.465Z,23.65
2023-11-26T05:52:12.461Z,22.45
2023-11-26T05:55:14.419Z,21.38
2023-11-26T05:58:16.167Z,30.42
2023-11-26T06:01:25.572Z,24.55
2023-11-26T06:04:27.514Z,23.58
2023-11-26T06:07:29.393Z,25.05
2023-11-26T06:10:34.683Z,21.52
2023-11-26T06:13:36.449Z,17.75
2023-11-26T06:16:38.406Z,23.38
2023-11-26T06:19:40.329Z,20.23
2023-11-26T06:22:43.319Z,26.80
2023-11-26T06:25:45.290Z,24.88
2023-11-26T06:28:47.097Z,24.90
2023-11-26T06:31:49.203Z,20.80
2023-11-26T06:34:51.032Z,23.60
2023-11-26T06:37:52.812Z,25.00
2023-11-26T06:40:54.603Z,26.67
2023-11-26T06:43:57.824Z,20.13
2023-11-26T06:50:01.834Z,20.17
2023-11-26T06:53:04.266Z,20.90
2023-11-26T06:56:07.646Z,21.50
2023-11-26T06:59:09.721Z,23.98
2023-11-26T07:02:11.950Z,22.00
2023-11-26T07:05:14.099Z,19.88
2023-11-26T07:08:15.961Z,19.90
2023-11-26T07:11:25.459Z,21.08
2023-11-26T07:14:27.923Z,20.27
2023-11-26T07:17:31.016Z,21.45
2023-11-26T07:20:35.029Z,20.83
2023-11-26T07:23:37.884Z,17.23
2023-11-26T07:26:40.186Z,20.60
2023-11-26T07:29:42.000Z,17.47
2023-11-26T07:32:44.788Z,24.33
2023-11-26T07:35:46.703Z,20.45
2023-11-26T07:38:48.471Z,20.83
2023-11-26T07:41:50.256Z,17.30
2023-11-26T07:44:52.099Z,15.77
2023-11-26T07:47:54.009Z,17.73
2023-11-26T07:50:56.593Z,13.77
2023-11-26T07:53:58.380Z,18.90
2023-11-26T07:57:00.103Z,19.27
2023-11-26T08:00:03.653Z,20.27
2023-11-26T08:03:06.173Z,18.80
2023-11-26T08:06:14.240Z,16.90
2023-11-26T08:09:17.118Z,20.98
2023-11-26T08:12:21.520Z,14.23
2023-11-26T08:15:25.367Z,19.45
2023-11-26T08:18:27.287Z,16.33
2023-11-26T08:21:32.618Z,20.80
2023-11-26T08:24:37.559Z,15.45
2023-11-26T08:27:46.300Z,12.32
2023-11-26T08:30:49.276Z,15.40
2023-11-26T08:33:51.900Z,19.33
2023-11-26T08:36:53.741Z,15.33
2023-11-26T08:39:55.637Z,15.30
2023-11-26T08:42:57.556Z,15.02
2023-11-26T08:46:04.161Z,12.63
2023-11-26T08:49:09.612Z,14.07
2023-11-26T08:52:11.782Z,13.45
2023-11-26T08:55:13.629Z,11.23
2023-11-26T08:58:15.529Z,14.23
2023-11-26T09:01:17.374Z,16.58
2023-11-26T09:04:19.196Z,17.85
2023-11-26T09:07:21.201Z,13.05
2023-11-26T09:10:23.122Z,16.00
2023-11-26T09:13:25.816Z,15.07
2023-11-26T09:16:30.985Z,10.68
2023-11-26T09:19:33.052Z,13.85
2023-11-26T09:22:34.783Z,16.42
2023-11-26T09:25:38.084Z,14.63
2023-11-26T09:31:45.720Z,12.60
2023-11-26T09:34:50.916Z,17.52
2023-11-26T09:37:55.032Z,17.75
2023-11-26T09:40:56.761Z,14.30
2023-11-26T09:46:57.732Z,22.10
2023-11-26T09:49:59.635Z,19.88
2023-11-26T09:53:02.805Z,19.25
2023-11-26T09:56:07.829Z,17.55
2023-11-26T09:59:25.216Z,19.02
2023-11-26T10:02:27.221Z,18.83
2023-11-26T10:05:29.688Z,15.40
2023-11-26T10:08:33.292Z,18.35
2023-11-26T10:11:35.286Z,20.30
2023-11-26T10:14:40.442Z,17.05
2023-11-26T10:17:42.380Z,23.83
2023-11-26T10:20:46.454Z,19.85
2023-11-26T10:23:48.703Z,16.92
2023-11-26T10:26:53.254Z,21.58
2023-11-26T10:29:55.153Z,25.83
2023-11-26T10:33:03.765Z,20.65
2023-11-26T10:36:06.258Z,20.85
2023-11-26T10:39:11.051Z,23.90
2023-11-26T10:42:13.551Z,18.08
2023-11-26T10:45:18.540Z,17.50
2023-11-26T10:48:23.953Z,20.83
2023-11-26T10:51:29.517Z,16.98
2023-11-26T10:54:38.787Z,22.80
2023-11-26T10:57:42.722Z,18.88
2023-11-26T11:00:49.989Z,18.60
2023-11-26T11:03:53.372Z,20.20
2023-11-26T11:10:03.766Z,18.35
2023-11-26T11:13:17.896Z,18.35
2023-11-26T11:16:19.883Z,15.65
2023-11-26T11:19:57.049Z,16.55
2023-11-26T11:23:00.698Z,18.33
2023-11-26T11:26:03.539Z,13.40
2023-11-26T11:29:05.530Z,18.58
2023-11-26T11:32:07.557Z,15.65
2023-11-26T11:35:37.601Z,18.92
2023-11-26T11:39:05.604Z,17.85
2023-11-26T11:42:08.852Z,14.18
2023-11-26T11:45:29.362Z,17.58
2023-11-26T11:48:43.741Z,16.48
2023-11-26T11:51:45.742Z,21.52
2023-11-26T11:54:59.425Z,21.08
2023-11-26T11:58:13.617Z,16.10
2023-11-26T12:01:18.734Z,18.48
2023-11-26T12:04:37.031Z,18.90
2023-11-26T12:07:39.160Z,18.63
2023-11-26T12:10:41.129Z,16.70
2023-11-26T12:13:45.884Z,15.63
2023-11-26T12:16:47.742Z,18.23
2023-11-26T12:19:56.259Z,15.85
2023-11-26T12:22:58.976Z,17.52
2023-11-26T12:26:01.938Z,19.25
2023-11-26T12:29:03.704Z,17.20
2023-11-26T12:32:09.708Z,19.98
2023-11-26T12:35:16.469Z,14.68
2023-11-26T12:38:25.454Z,15.27
2023-11-26T12:41:27.729Z,19.00
2023-11-26T12:44:31.798Z,19.10
2023-11-26T12:47:34.071Z,16.33
2023-11-26T12:50:45.761Z,18.27
2023-11-26T12:53:54.111Z,19.33
2023-11-26T12:56:59.246Z,23.48
2023-11-26T13:00:02.500Z,18.63
2023-11-26T13:06:10.782Z,22.30
2023-11-26T13:09:13.970Z,26.20
2023-11-26T13:12:16.341Z,27.15
2023-11-26T13:15:18.556Z,26.48
2023-11-26T13:18:20.697Z,25.17
2023-11-26T13:22:27.056Z,25.67
2023-11-26T13:25:30.730Z,26.55
2023-11-26T13:28:34.399Z,27.42
2023-11-26T13:31:36.506Z,27.73
2023-11-26T13:34:39.240Z,25.08
2023-11-26T13:37:41.437Z,21.23
2023-11-26T13:40:45.318Z,24.73
2023-11-26T13:43:47.524Z,28.88
2023-11-26T13:46:49.582Z,27.52
2023-11-26T13:49:51.321Z,21.15
2023-11-26T13:52:53.198Z,26.48
2023-11-26T13:55:55.378Z,26.83
2023-11-26T13:58:57.543Z,29.48
2023-11-26T14:01:59.627Z,25.27
2023-11-26T14:05:03.722Z,26.15
2023-11-26T14:08:08.697Z,21.73
2023-11-26T14:11:12.242Z,26.50
2023-11-26T14:14:14.980Z,24.95
2023-11-26T14:17:16.824Z,25.25
2023-11-26T14:20:21.077Z,27.42
2023-11-26T14:23:23.790Z,23.92
2023-11-26T14:26:26.610Z,23.08
2023-11-26T14:29:28.679Z,22.20
2023-11-26T14:32:30.929Z,24.90
2023-11-26T14:35:33.843Z,25.13
2023-11-26T14:38:35.749Z,24.40
2023-11-26T14:41:37.797Z,20.02
2023-11-26T14:44:39.922Z,20.85
2023-11-26T14:47:48.749Z,26.80
2023-11-26T14:50:50.708Z,24.92
2023-11-26T14:53:52.592Z,21.42
2023-11-26T14:56:54.379Z,21.23
2023-11-26T14:59:57.154Z,20.45
2023-11-26T15:02:59.189Z,27.75
2023-11-26T15:06:01.162Z,21.95
2023-11-26T15:09:05.278Z,16.23
2023-11-26T15:12:08.562Z,20.95
2023-11-26T15:15:12.427Z,21.45
2023-11-26T15:18:15.665Z,21.33
2023-11-26T15:21:18.784Z,23.52
2023-11-26T15:24:20.573Z,17.25
2023-11-26T15:27:22.576Z,22.60
2023-11-26T15:30:24.595Z,18.00
2023-11-26T15:33:26.765Z,18.65
2023-11-26T15:36:28.872Z,15.48
2023-11-26T15:39:30.868Z,18.20
2023-11-26T15:42:32.821Z,18.83
2023-11-26T15:45:34.659Z,17.42
2023-11-26T15:51:43.861Z,17.98
2023-11-26T15:54:45.892Z,21.95
2023-11-26T15:57:48.524Z,14.18
2023-11-26T16:00:50.497Z,18.90
2023-11-26T16:03:52.387Z,17.10
2023-11-26T16:06:54.247Z,15.95
2023-11-26T16:09:56.301Z,15.18
2023-11-26T16:12:58.130Z,17.73
2023-11-26T16:16:00.091Z,16.65
2023-11-26T16:19:02.045Z,18.08
2023-11-26T16:22:04.972Z,16.48
2023-11-26T16:25:10.369Z,15.20
2023-11-26T16:28:12.749Z,21.67
2023-11-26T16:31:15.726Z,16.20
2023-11-26T16:34:17.579Z,17.70
2023-11-26T16:37:19.456Z,17.20
2023-11-26T16:40:21.605Z,19.23
2023-11-26T16:43:23.479Z,14.65
2023-11-26T16:46:28.330Z,19.92
2023-11-26T16:49:31.925Z,21.23
2023-11-26T16:52:33.937Z,14.60
2023-11-26T16:55:35.968Z,18.25
2023-11-26T16:58:38.933Z,20.50
2023-11-26T17:01:41.027Z,17.35
2023-11-26T17:04:43.079Z,14.45
2023-11-26T17:07:45.050Z,18.50
2023-11-26T17:10:47.743Z,23.55
2023-11-26T17:13:49.621Z,16.23
2023-11-26T17:16:51.541Z,13.30
2023-11-26T17:19:53.531Z,16.50
2023-11-26T17:22:55.327Z,20.58
2023-11-26T17:25:57.935Z,21.13
2023-11-26T17:28:59.691Z,13.77
2023-11-26T17:32:01.715Z,10.20
2023-11-26T17:35:03.700Z,15.68
2023-11-26T17:38:05.481Z,18.55
2023-11-26T17:41:07.606Z,13.05
2023-11-26T17:44:09.417Z,14.70
2023-11-26T17:47:13.339Z,10.32
2023-11-26T17:50:15.094Z,14.15
2023-11-26T17:53:18.204Z,10.45
2023-11-26T17:56:20.406Z,11.27
2023-11-26T17:59:22.284Z,13.15
2023-11-26T18:02:24.186Z,14.25
2023-11-26T18:05:26.446Z,12.73
2023-11-26T18:08:28.364Z,13.07
2023-11-26T18:11:32.725Z,11.13
2023-11-26T18:14:34.675Z,8.68
2023-11-26T18:17:36.968Z,12.70
2023-11-26T18:20:38.709Z,14.55
2023-11-26T18:23:41.579Z,13.02
2023-11-26T18:26:46.888Z,10.95
2023-11-26T18:29:48.805Z,10.57
2023-11-26T18:32:50.627Z,9.13
2023-11-26T18:35:52.585Z,8.40
2023-11-26T18:38:55.031Z,14.55
2023-11-26T18:41:56.980Z,8.20
2023-11-26T18:44:58.882Z,11.90
2023-11-26T18:48:02.482Z,11.82
2023-11-26T18:51:06.061Z,12.23
2023-11-26T18:54:10.418Z,9.77
2023-11-26T18:57:12.508Z,13.43
2023-11-26T19:00:15.139Z,10.52
2023-11-26T19:03:17.065Z,10.43
2023-11-26T19:06:19.114Z,9.95
2023-11-26T19:09:21.169Z,9.43
2023-11-26T19:12:23.040Z,15.13
2023-11-26T19:15:24.858Z,9.95
2023-11-26T19:18:26.615Z,9.30
2023-11-26T19:21:28.570Z,9.70
2023-11-26T19:24:31.141Z,9.57
2023-11-26T19:27:35.271Z,11.65
2023-11-26T19:30:38.109Z,10.20
2023-11-26T19:33:39.955Z,11.43
2023-11-26T19:36:41.811Z,9.82
2023-11-26T19:39:44.665Z,6.80
2023-11-26T19:42:46.777Z,9.40
2023-11-26T19:45:48.669Z,9.90
2023-11-26T19:48:57.232Z,9.65
2023-11-26T19:51:59.391Z,9.05
2023-11-26T19:55:02.000Z,7.55
2023-11-26T19:58:04.270Z,14.27
2023-11-26T20:01:08.765Z,15.45
2023-11-26T20:04:10.728Z,9.40
2023-11-26T20:07:13.313Z,10.00
2023-11-26T20:10:21.488Z,13.40
2023-11-26T20:13:23.397Z,8.55
2023-11-26T20:16:25.998Z,10.70
2023-11-26T20:19:27.923Z,8.10
2023-11-26T20:22:30.882Z,11.60
2023-11-26T20:25:34.306Z,8.43
2023-11-26T20:28:36.534Z,11.32
2023-11-26T20:31:38.637Z,9.57
2023-11-26T20:34:41.617Z,9.38
2023-11-26T20:37:43.698Z,7.95
2023-11-26T20:40:45.760Z,10.23
2023-11-26T20:43:47.488Z,10.43
2023-11-26T20:46:49.449Z,11.38
2023-11-26T20:49:51.333Z,10.32
2023-11-26T20:52:53.256Z,9.73
2023-11-26T20:55:55.126Z,10.70
2023-11-26T20:58:59.257Z,6.85
2023-11-26T21:02:02.014Z,12.88
2023-11-26T21:05:04.980Z,13.73
2023-11-26T21:08:06.929Z,10.48
2023-11-26T21:11:10.961Z,12.07
2023-11-26T21:14:13.987Z,10.63
2023-11-26T21:17:16.066Z,9.63
2023-11-26T21:20:18.396Z,10.98
2023-11-26T21:23:20.604Z,12.03
2023-11-26T21:26:22.405Z,10.48
2023-11-26T21:29:24.380Z,10.98
2023-11-26T21:32:26.244Z,7.47
2023-11-26T21:35:29.116Z,9.07
2023-11-26T21:38:32.357Z,8.82
2023-11-26T21:41:34.299Z,11.95
2023-11-26T21:44:36.173Z,11.95
2023-11-26T21:47:38.451Z,8.93
2023-11-26T21:50:40.281Z,10.07
2023-11-26T21:53:42.729Z,12.45
2023-11-26T21:56:44.569Z,8.20
2023-11-26T21:59:46.290Z,12.02
2023-11-26T22:02:48.121Z,12.77
2023-11-26T22:05:50.673Z,8.98
2023-11-26T22:08:53.031Z,11.60
2023-11-26T22:11:54.775Z,7.97
2023-11-26T22:14:56.505Z,18.52
2023-11-26T22:17:58.305Z,13.38
2023-11-26T22:21:01.038Z,11.77
2023-11-26T22:24:05.878Z,9.27
2023-11-26T22:27:09.512Z,10.65
2023-11-26T22:30:12.920Z,10.25
2023-11-26T22:33:15.390Z,8.70
2023-11-26T22:36:22.066Z,8.90
2023-11-26T22:39:23.834Z,13.88
2023-11-26T22:42:25.904Z,10.40
2023-11-26T22:45:27.956Z,8.32
2023-11-26T22:48:29.926Z,12.32
2023-11-26T22:51:34.609Z,11.52
2023-11-26T22:54:36.453Z,9.85
2023-11-26T22:57:38.330Z,17.35
2023-11-26T23:00:41.963Z,15.20
2023-11-26T23:03:44.017Z,11.93
2023-11-26T23:06:45.881Z,14.85
2023-11-26T23:09:48.725Z,14.60
2023-11-26T23:12:50.806Z,16.25
2023-11-26T23:15:52.620Z,11.18
2023-11-26T23:18:54.464Z,16.67
2023-11-26T23:21:57.109Z,16.90
2023-11-26T23:25:00.490Z,12.82
2023-11-26T23:28:02.571Z,10.32
2023-11-26T23:31:04.601Z,12.98
2023-11-26T23:34:06.946Z,11.88
2023-11-26T23:37:08.883Z,13.77
2023-11-26T23:40:11.371Z,12.93
2023-11-26T23:43:16.525Z,13.60
2023-11-26T23:46:18.506Z,13.48
2023-11-26T23:49:20.462Z,14.70
2023-11-26T23:52:22.216Z,10.43
2023-11-26T23:55:24.357Z,10.68
2023-11-26T23:58:26.969Z,12.25
